Fulton, Ohio
Current Conditions -  °F | °C
As of 9:16 AM on Thursday 27 Nov 2014 (Local Time) from KMNN Reporting Station
Light Snow Light Snow  
Wind Chill: 19°   Ceiling: 1500
Heat Index: 29°   Visibility: 1.5mi
Dew Point: 24°   Wind: 13mph
Humidity: 82%   Direction: 330°NNW
Pressure: 30.17"   Gusts: NA
Location:  40.46°N, 82.83°W
Report Text: KMNN 271416Z AUTO 33011KT 1 1/2SM -SN BKN015 BKN021 OVC031 M02/M04 A3017 RMK AO2 P0000 T10171044 TSNO
Loading
Personal Weather Stations






























Interactive Weather Map New forecast layout! Learn more

10-Day Weather Forecast

Advertisements
Track Severe Weather on mobile